Daytona Beach, Florida
Current Conditions -  °F | °C
As of 11:53 PM on Friday 31 Oct 2014 (Local Time) from KDAB Reporting Station
Clear Clear  
Wind Chill: 59°   Ceiling: Unl
Heat Index: 59°   Visibility: 10mi
Dew Point: 50°   Wind: 8mph
Humidity: 72%   Direction: 270°W
Pressure: 29.88"   Gusts: NA
Location:  29.2°N, 81.04°W
Report Text: KDAB 010353Z 27007KT 10SM CLR 15/10 A2988 RMK AO2 SLP118 T01500100
Loading
Personal Weather Stations






























Interactive Weather Map
Tropical Storm Tracking
New forecast layout! Learn more

10-Day Weather Forecast

Advertisements
Track Severe Weather on mobile